Terminal Aerodrome Forecast
Issued by NWS Denver/Boulder, CO

Home | Current Version | Previous Version | Text Only | Print | Product List | Glossary On
Versions: 1 2 3 4 5 6 7 8 9 10 11 12 13 14 15 16 17 18 19 20 21 22 23 24 25 26 27 28 29 30 31 32 33 34 35 36 37 38 39 40 41 42 43 44 45 46 47 48 49 50
483
FTUS45 KBOU 292322
TAFDEN
TAF
KDEN 292322Z 3000/3106 11012KT P6SM SCT060 SCT120
     FM300100 12012KT P6SM SCT060 BKN120
      TEMPO 3001/3004 VRB15G30KT -TSRA BKN060CB
     FM300400 18011KT P6SM VCTS SCT060CB BKN100
     FM300600 20011KT P6SM SCT100
     FM301500 32007KT P6SM FEW060 SCT100
     FM302000 06010KT P6SM SCT080
     FM302300 08010KT P6SM VCTS SCT080CB SCT120
     FM310200 15010KT P6SM SCT120=

USA.gov is the U.S. government's official web portal to all federal, state and local government web resources and services.